sensor_id;sensor_type;location;lat;lon;timestamp;temperature;humidity
8780;DHT22;62328;51.19929245;4.42130175;2023-04-24T00:01:06;10.90;99.90
8780;DHT22;62328;51.19929245;4.42130175;2023-04-24T00:03:34;10.90;99.90
8780;DHT22;62328;51.19929245;4.42130175;2023-04-24T00:06:01;10.90;99.90
8780;DHT22;62328;51.19929245;4.42130175;2023-04-24T00:08:28;10.80;99.90
8780;DHT22;62328;51.19929245;4.42130175;2023-04-24T00:10:57;10.80;99.90
8780;DHT22;62328;51.19929245;4.42130175;2023-04-24T00:13:24;10.90;99.90
8780;DHT22;62328;51.19929245;4.42130175;2023-04-24T00:15:54;10.90;99.90
8780;DHT22;62328;51.19929245;4.42130175;2023-04-24T00:18:21;10.90;99.90
8780;DHT22;62328;51.19929245;4.42130175;2023-04-24T00:20:48;10.80;99.90
8780;DHT22;62328;51.19929245;4.42130175;2023-04-24T00:23:15;10.80;99.90
8780;DHT22;62328;51.19929245;4.42130175;2023-04-24T00:25:42;10.80;99.90
8780;DHT22;62328;51.19929245;4.42130175;2023-04-24T00:28:10;10.70;99.90
8780;DHT22;62328;51.19929245;4.42130175;2023-04-24T00:30:37;10.70;99.90
8780;DHT22;62328;51.19929245;4.42130175;2023-04-24T00:33:04;10.70;99.90
8780;DHT22;62328;51.19929245;4.42130175;2023-04-24T00:35:31;10.70;99.90
8780;DHT22;62328;51.19929245;4.42130175;2023-04-24T00:37:58;10.70;99.90
8780;DHT22;62328;51.19929245;4.42130175;2023-04-24T00:40:25;10.70;99.90
8780;DHT22;62328;51.19929245;4.42130175;2023-04-24T00:42:53;10.70;99.90
8780;DHT22;62328;51.19929245;4.42130175;2023-04-24T00:45:21;10.70;99.90
8780;DHT22;62328;51.19929245;4.42130175;2023-04-24T00:47:48;10.70;99.90
8780;DHT22;62328;51.19929245;4.42130175;2023-04-24T00:50:16;10.80;99.90
8780;DHT22;62328;51.19929245;4.42130175;2023-04-24T00:52:43;10.70;99.90
8780;DHT22;62328;51.19929245;4.42130175;2023-04-24T00:55:10;10.70;99.90
8780;DHT22;62328;51.19929245;4.42130175;2023-04-24T00:57:37;10.70;99.90
8780;DHT22;62328;51.19929245;4.42130175;2023-04-24T01:00:05;10.70;99.90
8780;DHT22;62328;51.19929245;4.42130175;2023-04-24T01:02:39;10.70;99.90
8780;DHT22;62328;51.19929245;4.42130175;2023-04-24T01:05:09;10.70;99.90
8780;DHT22;62328;51.19929245;4.42130175;2023-04-24T01:07:37;10.60;99.90
8780;DHT22;62328;51.19929245;4.42130175;2023-04-24T01:10:06;10.70;99.90
8780;DHT22;62328;51.19929245;4.42130175;2023-04-24T01:12:33;10.60;99.90
8780;DHT22;62328;51.19929245;4.42130175;2023-04-24T01:15:00;10.60;99.90
8780;DHT22;62328;51.19929245;4.42130175;2023-04-24T01:17:28;10.60;99.90
8780;DHT22;62328;51.19929245;4.42130175;2023-04-24T01:19:57;10.70;99.90
8780;DHT22;62328;51.19929245;4.42130175;2023-04-24T01:22:26;10.80;99.90
8780;DHT22;62328;51.19929245;4.42130175;2023-04-24T01:24:53;10.80;99.90
8780;DHT22;62328;51.19929245;4.42130175;2023-04-24T01:27:20;10.80;99.90
8780;DHT22;62328;51.19929245;4.42130175;2023-04-24T01:29:47;10.80;99.90
8780;DHT22;62328;51.19929245;4.42130175;2023-04-24T01:32:15;10.70;99.90
8780;DHT22;62328;51.19929245;4.42130175;2023-04-24T01:34:42;10.70;99.90
8780;DHT22;62328;51.19929245;4.42130175;2023-04-24T01:37:09;10.70;99.90
8780;DHT22;62328;51.19929245;4.42130175;2023-04-24T01:39:37;10.70;99.90
8780;DHT22;62328;51.19929245;4.42130175;2023-04-24T01:42:06;10.70;99.90
8780;DHT22;62328;51.19929245;4.42130175;2023-04-24T01:44:33;10.70;99.90
8780;DHT22;62328;51.19929245;4.42130175;2023-04-24T01:47:01;10.70;99.90
8780;DHT22;62328;51.19929245;4.42130175;2023-04-24T01:49:28;10.70;99.90
8780;DHT22;62328;51.19929245;4.42130175;2023-04-24T01:51:56;10.60;99.90
8780;DHT22;62328;51.19929245;4.42130175;2023-04-24T01:54:23;10.70;99.90
8780;DHT22;62328;51.19929245;4.42130175;2023-04-24T01:56:51;10.70;99.90
8780;DHT22;62328;51.19929245;4.42130175;2023-04-24T01:59:20;10.70;99.90
8780;DHT22;62328;51.19929245;4.42130175;2023-04-24T02:01:48;10.70;99.90
8780;DHT22;62328;51.19929245;4.42130175;2023-04-24T02:04:15;10.70;99.90
8780;DHT22;62328;51.19929245;4.42130175;2023-04-24T02:06:42;10.60;99.90
8780;DHT22;62328;51.19929245;4.42130175;2023-04-24T02:09:09;10.70;99.90
8780;DHT22;62328;51.19929245;4.42130175;2023-04-24T02:11:36;10.70;99.90
8780;DHT22;62328;51.19929245;4.42130175;2023-04-24T02:14:04;10.70;99.90
8780;DHT22;62328;51.19929245;4.42130175;2023-04-24T02:16:31;10.70;99.90
8780;DHT22;62328;51.19929245;4.42130175;2023-04-24T02:18:58;10.70;99.90
8780;DHT22;62328;51.19929245;4.42130175;2023-04-24T02:21:25;10.50;99.90
8780;DHT22;62328;51.19929245;4.42130175;2023-04-24T02:23:53;10.60;99.90
8780;DHT22;62328;51.19929245;4.42130175;2023-04-24T02:26:20;10.60;99.90
8780;DHT22;62328;51.19929245;4.42130175;2023-04-24T02:28:47;10.60;99.90
8780;DHT22;62328;51.19929245;4.42130175;2023-04-24T02:31:15;10.50;99.90
8780;DHT22;62328;51.19929245;4.42130175;2023-04-24T02:33:42;10.60;99.90
8780;DHT22;62328;51.19929245;4.42130175;2023-04-24T02:36:09;10.60;99.90
8780;DHT22;62328;51.19929245;4.42130175;2023-04-24T02:38:36;10.50;99.90
8780;DHT22;62328;51.19929245;4.42130175;2023-04-24T02:41:03;10.50;99.90
8780;DHT22;62328;51.19929245;4.42130175;2023-04-24T02:43:31;10.50;99.90
8780;DHT22;62328;51.19929245;4.42130175;2023-04-24T02:45:58;10.40;99.90
8780;DHT22;62328;51.19929245;4.42130175;2023-04-24T02:48:27;10.40;99.90
8780;DHT22;62328;51.19929245;4.42130175;2023-04-24T02:50:54;10.30;99.90
8780;DHT22;62328;51.19929245;4.42130175;2023-04-24T02:53:21;10.30;99.90
8780;DHT22;62328;51.19929245;4.42130175;2023-04-24T02:55:48;10.50;99.90
8780;DHT22;62328;51.19929245;4.42130175;2023-04-24T02:58:15;10.30;99.90
8780;DHT22;62328;51.19929245;4.42130175;2023-04-24T03:00:43;10.20;99.90
8780;DHT22;62328;51.19929245;4.42130175;2023-04-24T03:03:10;10.20;99.90
8780;DHT22;62328;51.19929245;4.42130175;2023-04-24T03:05:39;10.10;99.90
8780;DHT22;62328;51.19929245;4.42130175;2023-04-24T03:08:06;10.10;99.90
8780;DHT22;62328;51.19929245;4.42130175;2023-04-24T03:10:32;10.00;99.90
8780;DHT22;62328;51.19929245;4.42130175;2023-04-24T03:12:59;10.00;99.90
8780;DHT22;62328;51.19929245;4.42130175;2023-04-24T03:15:27;10.00;99.90
8780;DHT22;62328;51.19929245;4.42130175;2023-04-24T03:17:54;10.00;99.90
8780;DHT22;62328;51.19929245;4.42130175;2023-04-24T03:20:21;10.00;99.90
8780;DHT22;62328;51.19929245;4.42130175;2023-04-24T03:22:49;10.00;99.90
8780;DHT22;62328;51.19929245;4.42130175;2023-04-24T03:25:16;10.00;99.90
8780;DHT22;62328;51.19929245;4.42130175;2023-04-24T03:27:43;10.10;99.90
8780;DHT22;62328;51.19929245;4.42130175;2023-04-24T03:30:10;10.00;99.90
8780;DHT22;62328;51.19929245;4.42130175;2023-04-24T03:32:37;10.00;99.90
8780;DHT22;62328;51.19929245;4.42130175;2023-04-24T03:35:06;10.10;99.90
8780;DHT22;62328;51.19929245;4.42130175;2023-04-24T03:37:34;10.10;99.90
8780;DHT22;62328;51.19929245;4.42130175;2023-04-24T03:40:02;10.30;99.90
8780;DHT22;62328;51.19929245;4.42130175;2023-04-24T03:42:31;10.30;99.90
8780;DHT22;62328;51.19929245;4.42130175;2023-04-24T03:44:58;10.40;99.90
8780;DHT22;62328;51.19929245;4.42130175;2023-04-24T03:47:25;10.30;99.90
8780;DHT22;62328;51.19929245;4.42130175;2023-04-24T03:49:52;10.30;99.90
8780;DHT22;62328;51.19929245;4.42130175;2023-04-24T03:52:20;10.30;99.90
8780;DHT22;62328;51.19929245;4.42130175;2023-04-24T03:54:47;10.20;99.90
8780;DHT22;62328;51.19929245;4.42130175;2023-04-24T03:57:15;10.10;99.90
8780;DHT22;62328;51.19929245;4.42130175;2023-04-24T03:59:42;10.00;99.90
8780;DHT22;62328;51.19929245;4.42130175;2023-04-24T04:02:09;10.10;99.90
8780;DHT22;62328;51.19929245;4.42130175;2023-04-24T04:04:36;10.10;99.90
8780;DHT22;62328;51.19929245;4.42130175;2023-04-24T04:07:03;10.10;99.90
8780;DHT22;62328;51.19929245;4.42130175;2023-04-24T04:09:30;10.10;99.90
8780;DHT22;62328;51.19929245;4.42130175;2023-04-24T04:11:58;10.00;99.90
8780;DHT22;62328;51.19929245;4.42130175;2023-04-24T04:14:27;10.00;99.90
8780;DHT22;62328;51.19929245;4.42130175;2023-04-24T04:16:54;9.90;99.90
8780;DHT22;62328;51.19929245;4.42130175;2023-04-24T04:19:21;9.90;99.90
8780;DHT22;62328;51.19929245;4.42130175;2023-04-24T04:21:48;9.90;99.90
8780;DHT22;62328;51.19929245;4.42130175;2023-04-24T04:24:18;9.90;99.90
8780;DHT22;62328;51.19929245;4.42130175;2023-04-24T04:26:46;9.90;99.90
8780;DHT22;62328;51.19929245;4.42130175;2023-04-24T04:29:16;9.90;99.90
8780;DHT22;62328;51.19929245;4.42130175;2023-04-24T04:31:44;9.80;99.90
8780;DHT22;62328;51.19929245;4.42130175;2023-04-24T04:34:11;9.80;99.90
8780;DHT22;62328;51.19929245;4.42130175;2023-04-24T04:36:42;9.80;99.90
8780;DHT22;62328;51.19929245;4.42130175;2023-04-24T04:39:09;10.00;99.90
8780;DHT22;62328;51.19929245;4.42130175;2023-04-24T04:41:36;9.80;99.90
8780;DHT22;62328;51.19929245;4.42130175;2023-04-24T04:44:05;9.80;99.90
8780;DHT22;62328;51.19929245;4.42130175;2023-04-24T04:46:34;9.80;99.90
8780;DHT22;62328;51.19929245;4.42130175;2023-04-24T04:49:04;10.20;99.90
8780;DHT22;62328;51.19929245;4.42130175;2023-04-24T04:51:31;9.90;99.90
8780;DHT22;62328;51.19929245;4.42130175;2023-04-24T04:53:58;9.80;99.90
8780;DHT22;62328;51.19929245;4.42130175;2023-04-24T04:56:25;9.80;99.90
8780;DHT22;62328;51.19929245;4.42130175;2023-04-24T04:58:52;9.70;99.90
8780;DHT22;62328;51.19929245;4.42130175;2023-04-24T05:01:19;9.70;99.90
8780;DHT22;62328;51.19929245;4.42130175;2023-04-24T05:03:46;9.60;99.90
8780;DHT22;62328;51.19929245;4.42130175;2023-04-24T05:06:15;9.60;99.90
8780;DHT22;62328;51.19929245;4.42130175;2023-04-24T05:08:42;9.60;99.90
8780;DHT22;62328;51.19929245;4.42130175;2023-04-24T05:11:09;9.60;99.90
8780;DHT22;62328;51.19929245;4.42130175;2023-04-24T05:13:36;9.70;99.90
8780;DHT22;62328;51.19929245;4.42130175;2023-04-24T05:16:03;9.70;99.90
8780;DHT22;62328;51.19929245;4.42130175;2023-04-24T05:18:31;9.60;99.90
8780;DHT22;62328;51.19929245;4.42130175;2023-04-24T05:20:57;9.60;99.90
8780;DHT22;62328;51.19929245;4.42130175;2023-04-24T05:23:26;9.80;99.90
8780;DHT22;62328;51.19929245;4.42130175;2023-04-24T05:25:53;9.70;99.90
8780;DHT22;62328;51.19929245;4.42130175;2023-04-24T05:28:20;9.70;99.90
8780;DHT22;62328;51.19929245;4.42130175;2023-04-24T05:30:47;9.70;99.90
8780;DHT22;62328;51.19929245;4.42130175;2023-04-24T05:33:14;9.70;99.90
8780;DHT22;62328;51.19929245;4.42130175;2023-04-24T05:35:41;9.60;99.90
8780;DHT22;62328;51.19929245;4.42130175;2023-04-24T05:38:11;9.70;99.90
8780;DHT22;62328;51.19929245;4.42130175;2023-04-24T05:40:39;9.70;99.90
8780;DHT22;62328;51.19929245;4.42130175;2023-04-24T05:43:06;9.60;99.90
8780;DHT22;62328;51.19929245;4.42130175;2023-04-24T05:45:35;9.50;99.90
8780;DHT22;62328;51.19929245;4.42130175;2023-04-24T05:48:02;9.80;99.90
8780;DHT22;62328;51.19929245;4.42130175;2023-04-24T05:50:29;9.60;99.90
8780;DHT22;62328;51.19929245;4.42130175;2023-04-24T05:52:56;9.60;99.90
8780;DHT22;62328;51.19929245;4.42130175;2023-04-24T05:55:24;9.70;99.90
8780;DHT22;62328;51.19929245;4.42130175;2023-04-24T05:57:53;9.70;99.90
8780;DHT22;62328;51.19929245;4.42130175;2023-04-24T06:00:20;9.70;99.90
8780;DHT22;62328;51.19929245;4.42130175;2023-04-24T06:02:48;9.70;99.90
8780;DHT22;62328;51.19929245;4.42130175;2023-04-24T06:05:15;9.80;99.90
8780;DHT22;62328;51.19929245;4.42130175;2023-04-24T06:07:43;9.90;99.90
8780;DHT22;62328;51.19929245;4.42130175;2023-04-24T06:10:10;9.90;99.90
8780;DHT22;62328;51.19929245;4.42130175;2023-04-24T06:12:37;9.90;99.90
8780;DHT22;62328;51.19929245;4.42130175;2023-04-24T06:15:07;9.90;99.90
8780;DHT22;62328;51.19929245;4.42130175;2023-04-24T06:17:34;9.90;99.90
8780;DHT22;62328;51.19929245;4.42130175;2023-04-24T06:20:03;9.90;99.90
8780;DHT22;62328;51.19929245;4.42130175;2023-04-24T06:22:33;9.90;99.90
8780;DHT22;62328;51.19929245;4.42130175;2023-04-24T06:25:01;9.90;99.90
8780;DHT22;62328;51.19929245;4.42130175;2023-04-24T06:27:28;9.90;99.90
8780;DHT22;62328;51.19929245;4.42130175;2023-04-24T06:29:55;10.00;99.90
8780;DHT22;62328;51.19929245;4.42130175;2023-04-24T06:32:24;10.00;99.90
8780;DHT22;62328;51.19929245;4.42130175;2023-04-24T06:34:52;10.00;99.90
8780;DHT22;62328;51.19929245;4.42130175;2023-04-24T06:37:20;10.00;99.90
8780;DHT22;62328;51.19929245;4.42130175;2023-04-24T06:39:47;10.00;99.90
8780;DHT22;62328;51.19929245;4.42130175;2023-04-24T06:42:14;10.10;99.90
8780;DHT22;62328;51.19929245;4.42130175;2023-04-24T06:44:41;10.00;99.90
8780;DHT22;62328;51.19929245;4.42130175;2023-04-24T06:47:08;10.00;99.90
8780;DHT22;62328;51.19929245;4.42130175;2023-04-24T06:49:37;10.20;99.90
8780;DHT22;62328;51.19929245;4.42130175;2023-04-24T06:52:04;10.10;99.90
8780;DHT22;62328;51.19929245;4.42130175;2023-04-24T06:54:32;10.00;99.90
8780;DHT22;62328;51.19929245;4.42130175;2023-04-24T06:57:00;10.00;99.90
8780;DHT22;62328;51.19929245;4.42130175;2023-04-24T06:59:28;10.10;99.90
8780;DHT22;62328;51.19929245;4.42130175;2023-04-24T07:01:55;10.10;99.90
8780;DHT22;62328;51.19929245;4.42130175;2023-04-24T07:04:22;10.10;99.90
8780;DHT22;62328;51.19929245;4.42130175;2023-04-24T07:06:52;10.10;99.90
8780;DHT22;62328;51.19929245;4.42130175;2023-04-24T07:09:21;10.10;99.90
8780;DHT22;62328;51.19929245;4.42130175;2023-04-24T07:11:49;10.10;99.90
8780;DHT22;62328;51.19929245;4.42130175;2023-04-24T07:14:17;10.10;99.90
8780;DHT22;62328;51.19929245;4.42130175;2023-04-24T07:16:44;10.20;99.90
8780;DHT22;62328;51.19929245;4.42130175;2023-04-24T07:19:11;10.20;99.90
8780;DHT22;62328;51.19929245;4.42130175;2023-04-24T07:21:38;10.10;99.90
8780;DHT22;62328;51.19929245;4.42130175;2023-04-24T07:24:06;10.10;99.90
8780;DHT22;62328;51.19929245;4.42130175;2023-04-24T07:26:37;10.20;99.90
8780;DHT22;62328;51.19929245;4.42130175;2023-04-24T07:29:04;10.30;99.90
8780;DHT22;62328;51.19929245;4.42130175;2023-04-24T07:31:31;10.30;99.90
8780;DHT22;62328;51.19929245;4.42130175;2023-04-24T07:33:58;10.30;99.90
8780;DHT22;62328;51.19929245;4.42130175;2023-04-24T07:36:28;10.50;99.90
8780;DHT22;62328;51.19929245;4.42130175;2023-04-24T07:38:55;10.40;99.90
8780;DHT22;62328;51.19929245;4.42130175;2023-04-24T07:41:24;10.50;99.90
8780;DHT22;62328;51.19929245;4.42130175;2023-04-24T07:43:53;10.60;99.90
8780;DHT22;62328;51.19929245;4.42130175;2023-04-24T07:46:20;10.60;99.90
8780;DHT22;62328;51.19929245;4.42130175;2023-04-24T07:48:48;10.60;99.90
8780;DHT22;62328;51.19929245;4.42130175;2023-04-24T07:51:15;10.60;99.90
8780;DHT22;62328;51.19929245;4.42130175;2023-04-24T07:53:43;10.60;99.90
8780;DHT22;62328;51.19929245;4.42130175;2023-04-24T07:56:10;10.80;99.90
8780;DHT22;62328;51.19929245;4.42130175;2023-04-24T07:58:38;11.00;99.90
8780;DHT22;62328;51.19929245;4.42130175;2023-04-24T08:01:06;11.10;99.90
8780;DHT22;62328;51.19929245;4.42130175;2023-04-24T08:03:33;11.20;99.90
8780;DHT22;62328;51.19929245;4.42130175;2023-04-24T08:05:59;11.20;99.90
8780;DHT22;62328;51.19929245;4.42130175;2023-04-24T08:08:28;11.40;99.90
8780;DHT22;62328;51.19929245;4.42130175;2023-04-24T08:10:55;11.40;99.90
8780;DHT22;62328;51.19929245;4.42130175;2023-04-24T08:13:22;11.20;99.90
8780;DHT22;62328;51.19929245;4.42130175;2023-04-24T08:15:50;11.10;99.90
8780;DHT22;62328;51.19929245;4.42130175;2023-04-24T08:18:17;11.10;99.90
8780;DHT22;62328;51.19929245;4.42130175;2023-04-24T08:20:44;11.10;99.90
8780;DHT22;62328;51.19929245;4.42130175;2023-04-24T08:23:11;11.00;99.90
8780;DHT22;62328;51.19929245;4.42130175;2023-04-24T08:25:39;10.90;99.90
8780;DHT22;62328;51.19929245;4.42130175;2023-04-24T08:28:06;11.00;99.90
8780;DHT22;62328;51.19929245;4.42130175;2023-04-24T08:30:35;11.10;99.90
8780;DHT22;62328;51.19929245;4.42130175;2023-04-24T08:33:03;11.00;99.90
8780;DHT22;62328;51.19929245;4.42130175;2023-04-24T08:35:30;10.90;99.90
8780;DHT22;62328;51.19929245;4.42130175;2023-04-24T08:37:58;10.80;99.90
8780;DHT22;62328;51.19929245;4.42130175;2023-04-24T08:40:28;10.70;99.90
8780;DHT22;62328;51.19929245;4.42130175;2023-04-24T08:42:55;10.80;99.90
8780;DHT22;62328;51.19929245;4.42130175;2023-04-24T08:45:23;10.80;99.90
8780;DHT22;62328;51.19929245;4.42130175;2023-04-24T08:47:53;11.00;99.90
8780;DHT22;62328;51.19929245;4.42130175;2023-04-24T08:50:22;11.10;99.90
8780;DHT22;62328;51.19929245;4.42130175;2023-04-24T08:52:50;11.30;99.90
8780;DHT22;62328;51.19929245;4.42130175;2023-04-24T08:55:19;11.50;99.90
8780;DHT22;62328;51.19929245;4.42130175;2023-04-24T08:57:50;11.70;99.90
8780;DHT22;62328;51.19929245;4.42130175;2023-04-24T09:00:19;11.70;99.90
8780;DHT22;62328;51.19929245;4.42130175;2023-04-24T09:02:49;11.80;99.90
8780;DHT22;62328;51.19929245;4.42130175;2023-04-24T09:05:17;11.70;99.90
8780;DHT22;62328;51.19929245;4.42130175;2023-04-24T09:07:50;11.70;99.90
8780;DHT22;62328;51.19929245;4.42130175;2023-04-24T09:10:22;11.70;99.90
8780;DHT22;62328;51.19929245;4.42130175;2023-04-24T09:12:50;11.70;99.90
8780;DHT22;62328;51.19929245;4.42130175;2023-04-24T09:15:19;11.60;99.90
8780;DHT22;62328;51.19929245;4.42130175;2023-04-24T09:17:47;11.50;99.90
8780;DHT22;62328;51.19929245;4.42130175;2023-04-24T09:20:14;11.50;99.90
8780;DHT22;62328;51.19929245;4.42130175;2023-04-24T09:22:42;11.50;99.90
8780;DHT22;62328;51.19929245;4.42130175;2023-04-24T09:25:11;11.50;99.90
8780;DHT22;62328;51.19929245;4.42130175;2023-04-24T09:27:41;11.50;99.90
8780;DHT22;62328;51.19929245;4.42130175;2023-04-24T09:30:10;11.40;99.90
8780;DHT22;62328;51.19929245;4.42130175;2023-04-24T09:32:37;11.40;99.90
8780;DHT22;62328;51.19929245;4.42130175;2023-04-24T09:35:09;11.40;99.90
8780;DHT22;62328;51.19929245;4.42130175;2023-04-24T09:37:41;11.20;99.90
8780;DHT22;62328;51.19929245;4.42130175;2023-04-24T09:40:14;11.20;99.90
8780;DHT22;62328;51.19929245;4.42130175;2023-04-24T09:42:45;11.20;99.90
8780;DHT22;62328;51.19929245;4.42130175;2023-04-24T09:45:13;11.00;99.90
8780;DHT22;62328;51.19929245;4.42130175;2023-04-24T09:47:52;11.60;99.90
8780;DHT22;62328;51.19929245;4.42130175;2023-04-24T09:50:23;11.90;99.90
8780;DHT22;62328;51.19929245;4.42130175;2023-04-24T09:52:57;12.20;99.90
8780;DHT22;62328;51.19929245;4.42130175;2023-04-24T09:55:27;12.10;99.90
8780;DHT22;62328;51.19929245;4.42130175;2023-04-24T09:57:56;12.00;99.90
8780;DHT22;62328;51.19929245;4.42130175;2023-04-24T10:00:29;11.90;99.90
8780;DHT22;62328;51.19929245;4.42130175;2023-04-24T10:02:57;12.30;99.90
8780;DHT22;62328;51.19929245;4.42130175;2023-04-24T10:05:27;12.30;99.90
8780;DHT22;62328;51.19929245;4.42130175;2023-04-24T10:08:01;12.50;99.90
8780;DHT22;62328;51.19929245;4.42130175;2023-04-24T10:10:31;12.50;99.90
8780;DHT22;62328;51.19929245;4.42130175;2023-04-24T10:12:59;12.60;99.90
8780;DHT22;62328;51.19929245;4.42130175;2023-04-24T10:15:28;12.60;99.90
8780;DHT22;62328;51.19929245;4.42130175;2023-04-24T10:17:57;12.40;99.90
8780;DHT22;62328;51.19929245;4.42130175;2023-04-24T10:20:26;12.30;99.90
8780;DHT22;62328;51.19929245;4.42130175;2023-04-24T10:22:58;12.20;99.90
8780;DHT22;62328;51.19929245;4.42130175;2023-04-24T10:25:27;12.10;99.90
8780;DHT22;62328;51.19929245;4.42130175;2023-04-24T10:27:56;12.00;99.90
8780;DHT22;62328;51.19929245;4.42130175;2023-04-24T10:30:26;11.90;99.90
8780;DHT22;62328;51.19929245;4.42130175;2023-04-24T10:32:59;11.90;99.90
8780;DHT22;62328;51.19929245;4.42130175;2023-04-24T10:35:26;11.90;99.90
8780;DHT22;62328;51.19929245;4.42130175;2023-04-24T10:38:05;11.90;99.90
8780;DHT22;62328;51.19929245;4.42130175;2023-04-24T10:40:35;11.90;99.90
8780;DHT22;62328;51.19929245;4.42130175;2023-04-24T10:43:07;12.10;99.90
8780;DHT22;62328;51.19929245;4.42130175;2023-04-24T10:45:37;12.10;99.90
8780;DHT22;62328;51.19929245;4.42130175;2023-04-24T10:48:05;12.20;99.90
8780;DHT22;62328;51.19929245;4.42130175;2023-04-24T10:50:46;12.30;99.90
8780;DHT22;62328;51.19929245;4.42130175;2023-04-24T10:53:15;12.40;99.90
8780;DHT22;62328;51.19929245;4.42130175;2023-04-24T10:55:46;12.30;99.90
8780;DHT22;62328;51.19929245;4.42130175;2023-04-24T10:58:15;12.30;99.90
8780;DHT22;62328;51.19929245;4.42130175;2023-04-24T11:00:43;12.20;99.90
8780;DHT22;62328;51.19929245;4.42130175;2023-04-24T11:03:24;12.20;99.90
8780;DHT22;62328;51.19929245;4.42130175;2023-04-24T11:05:54;12.20;99.90
8780;DHT22;62328;51.19929245;4.42130175;2023-04-24T11:08:27;12.30;99.90
8780;DHT22;62328;51.19929245;4.42130175;2023-04-24T11:11:00;12.40;99.90
8780;DHT22;62328;51.19929245;4.42130175;2023-04-24T11:14:01;12.60;99.90
8780;DHT22;62328;51.19929245;4.42130175;2023-04-24T11:16:29;12.90;99.90
8780;DHT22;62328;51.19929245;4.42130175;2023-04-24T11:19:03;12.90;99.90
8780;DHT22;62328;51.19929245;4.42130175;2023-04-24T11:21:41;12.80;99.90
8780;DHT22;62328;51.19929245;4.42130175;2023-04-24T11:24:25;12.80;99.90
8780;DHT22;62328;51.19929245;4.42130175;2023-04-24T11:26:54;12.80;99.90
8780;DHT22;62328;51.19929245;4.42130175;2023-04-24T11:29:38;12.90;99.90
8780;DHT22;62328;51.19929245;4.42130175;2023-04-24T11:32:25;12.90;99.90
8780;DHT22;62328;51.19929245;4.42130175;2023-04-24T11:34:53;12.80;99.90
8780;DHT22;62328;51.19929245;4.42130175;2023-04-24T11:37:22;12.80;99.90
8780;DHT22;62328;51.19929245;4.42130175;2023-04-24T11:39:54;12.70;99.90
8780;DHT22;62328;51.19929245;4.42130175;2023-04-24T11:42:22;12.70;99.90
8780;DHT22;62328;51.19929245;4.42130175;2023-04-24T11:44:52;12.70;99.90
8780;DHT22;62328;51.19929245;4.42130175;2023-04-24T11:47:20;12.70;99.90
8780;DHT22;62328;51.19929245;4.42130175;2023-04-24T11:49:50;12.60;99.90
8780;DHT22;62328;51.19929245;4.42130175;2023-04-24T11:52:17;12.70;99.90
8780;DHT22;62328;51.19929245;4.42130175;2023-04-24T11:54:48;12.80;99.90
8780;DHT22;62328;51.19929245;4.42130175;2023-04-24T11:57:16;12.80;99.90
8780;DHT22;62328;51.19929245;4.42130175;2023-04-24T11:59:45;12.80;99.90
8780;DHT22;62328;51.19929245;4.42130175;2023-04-24T12:02:22;12.90;99.90
8780;DHT22;62328;51.19929245;4.42130175;2023-04-24T12:04:49;13.00;99.90
8780;DHT22;62328;51.19929245;4.42130175;2023-04-24T12:07:16;13.10;99.90
8780;DHT22;62328;51.19929245;4.42130175;2023-04-24T12:09:45;13.10;99.90
8780;DHT22;62328;51.19929245;4.42130175;2023-04-24T12:12:13;13.20;99.90
8780;DHT22;62328;51.19929245;4.42130175;2023-04-24T12:14:45;13.10;99.90
8780;DHT22;62328;51.19929245;4.42130175;2023-04-24T12:17:15;13.10;99.90
8780;DHT22;62328;51.19929245;4.42130175;2023-04-24T12:19:47;13.10;99.90
8780;DHT22;62328;51.19929245;4.42130175;2023-04-24T12:22:14;13.00;99.90
8780;DHT22;62328;51.19929245;4.42130175;2023-04-24T12:24:58;13.00;99.90
8780;DHT22;62328;51.19929245;4.42130175;2023-04-24T12:27:28;13.00;99.90
8780;DHT22;62328;51.19929245;4.42130175;2023-04-24T12:29:56;13.10;99.90
8780;DHT22;62328;51.19929245;4.42130175;2023-04-24T12:32:24;13.30;99.90
8780;DHT22;62328;51.19929245;4.42130175;2023-04-24T12:34:53;13.50;99.90
8780;DHT22;62328;51.19929245;4.42130175;2023-04-24T12:37:22;13.70;99.90
8780;DHT22;62328;51.19929245;4.42130175;2023-04-24T12:39:59;13.80;99.90
8780;DHT22;62328;51.19929245;4.42130175;2023-04-24T12:42:30;13.70;99.90
8780;DHT22;62328;51.19929245;4.42130175;2023-04-24T12:44:58;13.50;99.90
8780;DHT22;62328;51.19929245;4.42130175;2023-04-24T12:47:27;13.40;99.90
8780;DHT22;62328;51.19929245;4.42130175;2023-04-24T12:49:56;13.30;99.90
8780;DHT22;62328;51.19929245;4.42130175;2023-04-24T12:52:23;13.40;99.90
8780;DHT22;62328;51.19929245;4.42130175;2023-04-24T12:54:53;13.30;99.90
8780;DHT22;62328;51.19929245;4.42130175;2023-04-24T12:57:21;13.50;99.90
8780;DHT22;62328;51.19929245;4.42130175;2023-04-24T12:59:48;13.80;99.90
8780;DHT22;62328;51.19929245;4.42130175;2023-04-24T13:02:15;14.30;99.90
8780;DHT22;62328;51.19929245;4.42130175;2023-04-24T13:04:44;14.50;99.90
8780;DHT22;62328;51.19929245;4.42130175;2023-04-24T13:07:14;14.50;99.90
8780;DHT22;62328;51.19929245;4.42130175;2023-04-24T13:09:41;14.70;99.90
8780;DHT22;62328;51.19929245;4.42130175;2023-04-24T13:12:08;14.70;99.90
8780;DHT22;62328;51.19929245;4.42130175;2023-04-24T13:14:36;14.90;99.90
8780;DHT22;62328;51.19929245;4.42130175;2023-04-24T13:17:03;15.10;99.90
8780;DHT22;62328;51.19929245;4.42130175;2023-04-24T13:19:35;15.40;99.90
8780;DHT22;62328;51.19929245;4.42130175;2023-04-24T13:22:03;15.40;99.90
8780;DHT22;62328;51.19929245;4.42130175;2023-04-24T13:24:32;15.20;99.90
8780;DHT22;62328;51.19929245;4.42130175;2023-04-24T13:26:59;14.80;99.90
8780;DHT22;62328;51.19929245;4.42130175;2023-04-24T13:29:28;14.60;99.90
8780;DHT22;62328;51.19929245;4.42130175;2023-04-24T13:31:55;14.60;99.90
8780;DHT22;62328;51.19929245;4.42130175;2023-04-24T13:34:22;14.50;99.90
8780;DHT22;62328;51.19929245;4.42130175;2023-04-24T13:36:49;14.70;99.90
8780;DHT22;62328;51.19929245;4.42130175;2023-04-24T13:39:16;14.70;99.90
8780;DHT22;62328;51.19929245;4.42130175;2023-04-24T13:41:45;14.60;99.90
8780;DHT22;62328;51.19929245;4.42130175;2023-04-24T13:44:13;14.60;99.90